Aérodrome :
LOGIN :

S'inscrire | Disclaimer

   EN    FR    IT 

 










Légende :    VFR   VFR Marginal   IFR   IFR Intensif   IFR Très Intensif
Visi : 
Plafond : 
>= 8 km
>= 3000ft
5 à 8 km
1000 à 3000 ft
1500m à 5 km
500 à 1000 ft
800 à 1500m
200 à 500 ft
< 800m
< 200 ft
Symboles :   Orages  Brouillard  Fortes neiges  Fortes précipitations  Vent > 20 kt
SIGMETs :   Divers  Orages  Givrage  Turbulence  Onde Orograph.  Cendres Volcan.






- Altitude de l'aérodrome : 1036 ft
- Code IATA : ERF


EDDE - Erfurt

DERNIER METAR :
  • 250820Z 30011KT 270V330 9999 SCT012CB 13/09 Q1029 NOSIG

METARs EXPIRÉS :
  • 250750Z 32016KT 9999 -SHRA SCT012CB 14/09 Q1029 NOSIG
  • 250720Z 29010KT 9999 -SHRA SCT012CB 12/10 Q1029 NOSIG
  • 250650Z 28013KT 9999 -SHRA SCT010CB 12/10 Q1029 NOSIG
  • 250620Z 27014KT 9999 SCT020CB 11/10 Q1028 NOSIG
  • 250550Z 27013KT 9999 SCT020CB 11/09 Q1028 NOSIG

TAF TAF EDDE
Valide du 25 à 06h jusqu'au 26 à 06h UTC


250500Z 2506/2606 26011KT 9999 SCT025
BECMG 2506/2509 32013KT
TEMPO 2509/2514 32015G25KT
BECMG 2514/2516 34005KT



MET'MAP, la Météo Aéronautique d'un coup d'oeil ! - Copyright ORBIFLY Décembre 2007 - Disclaimer

ORBIFLY MET'MAP TEAM :

Programmation & Développement : Alexandra Zaïnal
Sur une idée originale de : Baudouin d'Aumeries
Assistance à la programmation : Marc-Olivier Méhu
Soutien technique & logistique : Manuel Goepfert

Contact : metmap@orbifly.com




SOURCES & CREDITS :

   NOAA